Terminal Aerodrome Forecast
Issued by NWS

Home | Current Version | Previous Version | Graphics & Text | Print | Product List | Glossary On
Versions: 1 2 3 4 5 6 7 8 9 10 11 12 13 14
000
FTUS43 KICT 031135
TAFRSL
TAF
KRSL 031135Z 0312/0412 01009KT 6SM BR BKN009
      TEMPO 0312/0316 4SM BR OVC005
     FM031600 02006KT P6SM FEW025 SCT040
     FM040100 09007KT P6SM FEW035=

USA.gov is the U.S. government's official web portal to all federal, state and local government web resources and services.